createdAt,value
2017-10-02T00:00:01.232Z,23.2
2017-10-02T00:00:41.681Z,23.21
2017-10-02T00:01:22.127Z,23.17
2017-10-02T00:02:02.584Z,23.2
2017-10-02T00:02:43.038Z,23.18
2017-10-02T00:03:23.490Z,23.18
2017-10-02T00:04:03.944Z,23.23
2017-10-02T00:04:44.424Z,23.2
2017-10-02T00:05:24.874Z,23.28
2017-10-02T00:06:05.324Z,23.18
2017-10-02T00:06:45.775Z,23.23
2017-10-02T00:07:26.234Z,23.18
2017-10-02T00:08:06.694Z,23.18
2017-10-02T00:08:47.146Z,23.14
2017-10-02T00:09:27.595Z,23.11
2017-10-02T00:10:08.048Z,23.2
2017-10-02T00:10:48.503Z,23.1
2017-10-02T00:11:28.951Z,23.14
2017-10-02T00:12:09.405Z,23.16
2017-10-02T00:12:49.862Z,23.13
2017-10-02T00:13:30.319Z,23.16
2017-10-02T00:14:10.774Z,23.13
2017-10-02T00:14:51.227Z,23.14
2017-10-02T00:15:31.685Z,23.11
2017-10-02T00:16:12.149Z,23.18
2017-10-02T00:16:52.610Z,23.18
2017-10-02T00:17:33.058Z,23.16
2017-10-02T00:18:13.536Z,23.14
2017-10-02T00:18:54.001Z,23.25
2017-10-02T00:19:34.456Z,23.14
2017-10-02T00:20:14.908Z,23.14
2017-10-02T00:20:55.365Z,23.16
2017-10-02T00:21:35.817Z,23.16
2017-10-02T00:22:16.272Z,23.21
2017-10-02T00:22:56.734Z,23.14
2017-10-02T00:23:37.183Z,23.14
2017-10-02T00:24:17.634Z,23.13
2017-10-02T00:24:58.093Z,23.18
2017-10-02T00:25:38.552Z,23.17
2017-10-02T00:26:19.009Z,23.18
2017-10-02T00:26:59.464Z,23.17
2017-10-02T00:27:39.917Z,23.07
2017-10-02T00:28:20.373Z,23.16
2017-10-02T00:29:00.827Z,23.17
2017-10-02T00:29:41.285Z,23.13
2017-10-02T00:30:21.740Z,23.13
2017-10-02T00:31:02.199Z,23.08
2017-10-02T00:31:42.658Z,23.08
2017-10-02T00:32:23.119Z,23.13
2017-10-02T00:33:03.562Z,23.1
2017-10-02T00:33:44.014Z,23.04
2017-10-02T00:34:24.467Z,23.06
2017-10-02T00:35:04.924Z,23.08
2017-10-02T00:35:45.384Z,23.13
2017-10-02T00:36:25.840Z,23.04
2017-10-02T00:37:06.298Z,23.08
2017-10-02T00:37:46.751Z,22.98
2017-10-02T00:38:27.205Z,23.04
2017-10-02T00:39:07.661Z,23.08
2017-10-02T00:39:48.112Z,23.1
2017-10-02T00:40:28.604Z,23.06
2017-10-02T00:41:09.024Z,23.02
2017-10-02T00:41:49.473Z,23.06
2017-10-02T00:42:29.929Z,23.1
2017-10-02T00:43:10.373Z,23.04
2017-10-02T00:43:50.833Z,22.98
2017-10-02T00:44:31.307Z,22.99
2017-10-02T00:45:11.745Z,23.06
2017-10-02T00:45:52.197Z,23.06
2017-10-02T00:46:32.657Z,23.01
2017-10-02T00:47:13.112Z,22.96
2017-10-02T00:47:53.568Z,23.1
2017-10-02T00:48:34.017Z,22.99
2017-10-02T00:49:14.481Z,23.08
2017-10-02T00:49:54.931Z,22.99
2017-10-02T00:50:35.385Z,23.07
2017-10-02T00:51:15.845Z,23.01
2017-10-02T00:51:56.303Z,23.02
2017-10-02T00:52:36.761Z,22.98
2017-10-02T00:53:17.214Z,22.95
2017-10-02T00:53:57.669Z,22.98
2017-10-02T00:54:38.128Z,23.06
2017-10-02T00:55:18.591Z,23.01
2017-10-02T00:55:59.036Z,22.98
2017-10-02T00:56:39.492Z,22.98
2017-10-02T00:57:19.970Z,23.01
2017-10-02T00:58:00.428Z,23.04
2017-10-02T00:58:40.878Z,23.04
2017-10-02T00:59:21.337Z,23.01
2017-10-02T01:00:01.800Z,23.06
2017-10-02T01:00:42.262Z,23.06
2017-10-02T01:01:22.726Z,23.04
2017-10-02T01:02:03.184Z,23.06
2017-10-02T01:02:43.636Z,22.98
2017-10-02T01:03:24.093Z,23.02
2017-10-02T01:04:04.540Z,23.04
2017-10-02T01:04:44.997Z,23.02
2017-10-02T01:05:26.309Z,23.02
2017-10-02T01:06:06.762Z,23.04
2017-10-02T01:06:47.218Z,22.99
2017-10-02T01:07:27.696Z,22.98
2017-10-02T01:08:08.131Z,23.04
2017-10-02T01:08:48.590Z,23.04
2017-10-02T01:09:29.073Z,23.06
2017-10-02T01:10:09.499Z,23.02
2017-10-02T01:10:49.954Z,23.06
2017-10-02T01:11:30.404Z,23.01
2017-10-02T01:12:10.866Z,22.92
2017-10-02T01:12:51.321Z,23.02
2017-10-02T01:13:31.771Z,23.02
2017-10-02T01:14:12.229Z,22.98
2017-10-02T01:14:52.687Z,23.02
2017-10-02T01:15:33.142Z,23.01
2017-10-02T01:16:13.623Z,23.04
2017-10-02T01:16:54.072Z,23.02
2017-10-02T01:17:34.527Z,22.99
2017-10-02T01:18:14.978Z,22.99
2017-10-02T01:18:55.424Z,23.02
2017-10-02T01:19:35.889Z,23.01
2017-10-02T01:20:16.339Z,22.95
2017-10-02T01:20:56.791Z,22.96
2017-10-02T01:21:37.247Z,22.99
2017-10-02T01:22:17.705Z,22.95
2017-10-02T01:22:58.167Z,22.99
2017-10-02T01:23:38.621Z,22.95
2017-10-02T01:24:19.078Z,22.98
2017-10-02T01:24:59.537Z,22.96
2017-10-02T01:25:39.995Z,23.06
2017-10-02T01:26:20.452Z,22.95
2017-10-02T01:27:00.909Z,22.99
2017-10-02T01:27:41.364Z,22.98
2017-10-02T01:28:21.817Z,22.99
2017-10-02T01:29:02.251Z,22.95
2017-10-02T01:29:42.704Z,22.93
2017-10-02T01:30:23.167Z,22.96
2017-10-02T01:31:03.620Z,22.95
2017-10-02T01:31:44.063Z,22.99
2017-10-02T01:32:24.512Z,22.95
2017-10-02T01:33:04.966Z,22.91
2017-10-02T01:33:45.428Z,22.96
2017-10-02T01:34:25.887Z,22.95
2017-10-02T01:35:06.345Z,22.93
2017-10-02T01:35:46.803Z,22.93
2017-10-02T01:36:27.255Z,22.92
2017-10-02T01:37:07.710Z,22.96
2017-10-02T01:37:48.167Z,22.95
2017-10-02T01:38:28.613Z,22.95
2017-10-02T01:39:09.065Z,22.93
2017-10-02T01:39:49.523Z,22.93
2017-10-02T01:40:29.980Z,22.92
2017-10-02T01:41:10.437Z,22.93
2017-10-02T01:41:50.897Z,22.91
2017-10-02T01:42:31.354Z,22.96
2017-10-02T01:43:11.816Z,22.98
2017-10-02T01:43:52.273Z,22.91
2017-10-02T01:44:32.727Z,22.92
2017-10-02T01:45:13.172Z,22.98
2017-10-02T01:45:53.627Z,22.89
2017-10-02T01:46:34.076Z,22.95
2017-10-02T01:47:14.524Z,22.92
2017-10-02T01:47:54.980Z,22.95
2017-10-02T01:48:35.435Z,22.96
2017-10-02T01:49:15.889Z,22.93
2017-10-02T01:49:56.341Z,22.93
2017-10-02T01:50:36.788Z,22.89
2017-10-02T01:51:17.248Z,22.93
2017-10-02T01:51:57.699Z,22.93
2017-10-02T01:52:38.151Z,22.93
2017-10-02T01:53:18.611Z,22.88
2017-10-02T01:53:59.064Z,22.96
2017-10-02T01:54:39.518Z,22.93
2017-10-02T01:55:19.980Z,22.96
2017-10-02T01:56:00.437Z,22.93
2017-10-02T01:56:40.897Z,22.96
2017-10-02T01:57:21.354Z,22.91
2017-10-02T01:58:01.809Z,22.89
2017-10-02T01:58:42.270Z,22.93
2017-10-02T01:59:22.723Z,22.91
2017-10-02T02:00:03.171Z,22.89
2017-10-02T02:00:43.622Z,22.91
2017-10-02T02:01:24.076Z,22.96
2017-10-02T02:02:04.532Z,22.96
2017-10-02T02:02:45.002Z,22.92
2017-10-02T02:03:25.436Z,22.89
2017-10-02T02:04:05.915Z,22.89
2017-10-02T02:04:46.388Z,22.92
2017-10-02T02:05:26.830Z,22.92
2017-10-02T02:06:07.287Z,22.91
2017-10-02T02:06:47.737Z,22.91
2017-10-02T02:07:28.191Z,22.89
2017-10-02T02:08:08.644Z,22.83
2017-10-02T02:08:49.101Z,22.88
2017-10-02T02:09:29.559Z,22.92
2017-10-02T02:10:10.008Z,22.84
2017-10-02T02:10:50.461Z,22.91
2017-10-02T02:11:30.915Z,22.84
2017-10-02T02:12:11.373Z,22.83
2017-10-02T02:12:51.814Z,22.8
2017-10-02T02:13:32.266Z,22.81
2017-10-02T02:14:12.723Z,22.86
2017-10-02T02:14:53.179Z,22.86
2017-10-02T02:15:33.637Z,22.81
2017-10-02T02:16:14.085Z,22.84
2017-10-02T02:16:54.545Z,22.84
2017-10-02T02:17:35.002Z,22.84
2017-10-02T02:18:15.460Z,22.81
2017-10-02T02:18:55.923Z,22.84
2017-10-02T02:19:36.383Z,22.81
2017-10-02T02:20:16.819Z,22.84
2017-10-02T02:20:57.290Z,22.78
2017-10-02T02:21:37.729Z,22.78
2017-10-02T02:22:18.175Z,22.83
2017-10-02T02:22:58.625Z,22.8
2017-10-02T02:23:39.075Z,22.86
2017-10-02T02:24:19.522Z,22.84
2017-10-02T02:24:59.970Z,22.81
2017-10-02T02:25:40.430Z,22.8
2017-10-02T02:26:20.888Z,22.86
2017-10-02T02:27:01.354Z,22.83
2017-10-02T02:27:41.799Z,22.78
2017-10-02T02:28:22.255Z,22.81
2017-10-02T02:29:02.709Z,22.77
2017-10-02T02:29:43.166Z,22.78
2017-10-02T02:30:23.620Z,22.78
2017-10-02T02:31:04.087Z,22.88
2017-10-02T02:31:44.546Z,22.8
2017-10-02T02:32:24.983Z,22.8
2017-10-02T02:33:05.441Z,22.86
2017-10-02T02:33:45.917Z,22.78
2017-10-02T02:34:26.369Z,22.78
2017-10-02T02:35:06.814Z,22.84
2017-10-02T02:35:47.272Z,22.77
2017-10-02T02:36:27.732Z,22.8
2017-10-02T02:37:08.186Z,22.8
2017-10-02T02:37:48.643Z,22.84
2017-10-02T02:38:29.100Z,22.78
2017-10-02T02:39:09.560Z,22.84
2017-10-02T02:39:50.008Z,22.8
2017-10-02T02:40:30.463Z,22.81
2017-10-02T02:41:10.914Z,22.8
2017-10-02T02:41:51.366Z,22.88
2017-10-02T02:42:31.829Z,22.81
2017-10-02T02:43:12.276Z,22.86
2017-10-02T02:43:52.746Z,22.83
2017-10-02T02:44:33.188Z,22.8
2017-10-02T02:45:13.649Z,22.86
2017-10-02T02:45:54.108Z,22.84
2017-10-02T02:46:34.562Z,22.78
2017-10-02T02:47:15.022Z,22.83
2017-10-02T02:47:55.474Z,22.77
2017-10-02T02:48:35.929Z,22.8
2017-10-02T02:49:16.389Z,22.8
2017-10-02T02:49:56.842Z,22.77
2017-10-02T02:50:37.305Z,22.8
2017-10-02T02:51:17.754Z,22.8
2017-10-02T02:51:58.204Z,22.78
2017-10-02T02:52:38.657Z,22.77
2017-10-02T02:53:19.130Z,22.77
2017-10-02T02:53:59.580Z,22.78
2017-10-02T02:54:40.043Z,22.81
2017-10-02T02:55:20.494Z,22.76
2017-10-02T02:56:00.907Z,22.73
2017-10-02T02:56:41.378Z,22.83
2017-10-02T02:57:21.807Z,22.77
2017-10-02T02:58:02.331Z,22.81
2017-10-02T02:58:42.796Z,22.8
2017-10-02T02:59:23.228Z,22.83
2017-10-02T03:00:03.680Z,22.81
2017-10-02T03:00:44.140Z,22.71
2017-10-02T03:01:24.595Z,22.81
2017-10-02T03:02:05.039Z,22.77
2017-10-02T03:02:45.497Z,22.67
2017-10-02T03:03:25.952Z,22.71
2017-10-02T03:04:06.434Z,22.77
2017-10-02T03:04:46.876Z,22.68
2017-10-02T03:05:27.343Z,22.7
2017-10-02T03:06:07.798Z,22.7
2017-10-02T03:06:48.249Z,22.81
2017-10-02T03:07:28.730Z,22.74
2017-10-02T03:08:09.188Z,22.74
2017-10-02T03:08:49.645Z,22.74
2017-10-02T03:09:30.104Z,22.65
2017-10-02T03:10:10.552Z,22.74
2017-10-02T03:10:51.010Z,22.67
2017-10-02T03:11:31.464Z,22.71
2017-10-02T03:12:11.915Z,22.78
2017-10-02T03:12:52.363Z,22.76
2017-10-02T03:13:32.838Z,22.68
2017-10-02T03:14:13.291Z,22.7
2017-10-02T03:14:53.732Z,22.73
2017-10-02T03:15:34.180Z,22.65
2017-10-02T03:16:14.635Z,22.7
2017-10-02T03:16:55.098Z,22.78
2017-10-02T03:17:35.541Z,22.78
2017-10-02T03:18:16.002Z,22.71
2017-10-02T03:18:56.461Z,22.76
2017-10-02T03:19:36.919Z,22.77
2017-10-02T03:20:17.378Z,22.7
2017-10-02T03:20:57.834Z,22.71
2017-10-02T03:21:38.287Z,22.78
2017-10-02T03:22:18.762Z,22.77
2017-10-02T03:22:59.216Z,22.77
2017-10-02T03:23:39.668Z,22.81
2017-10-02T03:24:20.135Z,22.76
2017-10-02T03:25:00.592Z,22.74
2017-10-02T03:25:41.053Z,22.73
2017-10-02T03:26:21.501Z,22.65
2017-10-02T03:27:01.975Z,22.8
2017-10-02T03:27:42.440Z,22.74
2017-10-02T03:28:22.889Z,22.78
2017-10-02T03:29:03.342Z,22.71
2017-10-02T03:29:43.799Z,22.76
2017-10-02T03:30:24.271Z,22.77
2017-10-02T03:31:04.727Z,22.73
2017-10-02T03:31:45.177Z,22.7
2017-10-02T03:32:25.642Z,22.7
2017-10-02T03:33:06.096Z,22.65
2017-10-02T03:33:46.551Z,22.78
2017-10-02T03:34:26.984Z,22.8
2017-10-02T03:35:07.437Z,22.71
2017-10-02T03:35:47.890Z,22.76
2017-10-02T03:36:28.344Z,22.77
2017-10-02T03:37:08.796Z,22.7
2017-10-02T03:37:49.267Z,22.8
2017-10-02T03:38:29.722Z,22.78
2017-10-02T03:39:10.170Z,22.71
2017-10-02T03:39:50.631Z,22.73
2017-10-02T03:40:31.078Z,22.67
2017-10-02T03:41:11.536Z,22.74
2017-10-02T03:41:51.993Z,22.78
2017-10-02T03:42:32.447Z,22.68
2017-10-02T03:43:12.900Z,22.71
2017-10-02T03:43:53.353Z,22.76
2017-10-02T03:44:33.814Z,22.74
2017-10-02T03:45:14.276Z,22.71
2017-10-02T03:45:54.731Z,22.76
2017-10-02T03:46:35.185Z,22.76
2017-10-02T03:47:15.645Z,22.68
2017-10-02T03:47:56.100Z,22.65
2017-10-02T03:48:36.553Z,22.71
2017-10-02T03:49:17.007Z,22.74
2017-10-02T03:49:57.467Z,22.71
2017-10-02T03:50:37.916Z,22.7
2017-10-02T03:51:18.373Z,22.73
2017-10-02T03:51:58.831Z,22.7
2017-10-02T03:52:39.310Z,22.7
2017-10-02T03:53:19.748Z,22.76
2017-10-02T03:54:00.205Z,22.73
2017-10-02T03:54:40.659Z,22.7
2017-10-02T03:55:21.112Z,22.73
2017-10-02T03:56:01.564Z,22.71
2017-10-02T03:56:42.015Z,22.59
2017-10-02T03:57:22.467Z,22.7
2017-10-02T03:58:03.903Z,22.74
2017-10-02T03:58:44.357Z,22.71
2017-10-02T03:59:24.809Z,22.77
2017-10-02T04:00:05.256Z,22.68
2017-10-02T04:00:45.715Z,22.74
2017-10-02T04:01:26.163Z,22.73
2017-10-02T04:02:06.619Z,22.74
2017-10-02T04:02:47.077Z,22.71
2017-10-02T04:03:27.539Z,22.73
2017-10-02T04:04:07.988Z,22.74
2017-10-02T04:04:48.435Z,22.83
2017-10-02T04:05:28.892Z,22.77
2017-10-02T04:06:09.336Z,22.74
2017-10-02T04:06:49.806Z,22.83
2017-10-02T04:07:30.263Z,22.83
2017-10-02T04:08:10.721Z,22.81
2017-10-02T04:08:51.176Z,22.86
2017-10-02T04:09:31.641Z,22.8
2017-10-02T04:10:12.098Z,22.89
2017-10-02T04:10:52.550Z,22.78
2017-10-02T04:11:33.009Z,22.89
2017-10-02T04:12:13.462Z,22.86
2017-10-02T04:12:53.919Z,22.93
2017-10-02T04:13:34.367Z,22.91
2017-10-02T04:14:14.812Z,22.96
2017-10-02T04:14:55.253Z,22.92
2017-10-02T04:15:35.720Z,22.84
2017-10-02T04:16:16.177Z,22.93
2017-10-02T04:16:56.631Z,22.91
2017-10-02T04:17:37.087Z,22.89
2017-10-02T04:18:17.541Z,22.89
2017-10-02T04:18:57.995Z,22.92
2017-10-02T04:19:38.443Z,22.95
2017-10-02T04:20:18.899Z,22.96
2017-10-02T04:21:00.176Z,22.95
2017-10-02T04:21:40.619Z,22.96
2017-10-02T04:22:21.073Z,23.06
2017-10-02T04:23:01.532Z,22.99
2017-10-02T04:23:41.994Z,22.99
2017-10-02T04:24:22.449Z,22.99
2017-10-02T04:25:02.899Z,22.98
2017-10-02T04:25:43.352Z,23.04
2017-10-02T04:26:23.806Z,22.98
2017-10-02T04:27:05.088Z,23.02
2017-10-02T04:27:45.568Z,23.04
2017-10-02T04:28:26.021Z,23.06
2017-10-02T04:29:06.471Z,23.04
2017-10-02T04:29:46.924Z,23.06
2017-10-02T04:30:27.389Z,23.06
2017-10-02T04:31:07.835Z,23.08
2017-10-02T04:31:48.315Z,23.06
2017-10-02T04:32:28.768Z,23.01
2017-10-02T04:33:09.227Z,23.04
2017-10-02T04:33:49.685Z,22.92
2017-10-02T04:34:30.145Z,23.01
2017-10-02T04:35:10.588Z,23.02
2017-10-02T04:35:51.052Z,23.01
2017-10-02T04:36:31.497Z,22.99
2017-10-02T04:37:11.965Z,22.99
2017-10-02T04:37:52.423Z,23.01
2017-10-02T04:38:32.870Z,23.02
2017-10-02T04:39:13.324Z,23.01
2017-10-02T04:39:53.801Z,23.02
2017-10-02T04:40:34.254Z,23.06
2017-10-02T04:41:14.701Z,23.04
2017-10-02T04:41:55.152Z,23.04
2017-10-02T04:42:35.610Z,23.08
2017-10-02T04:43:16.062Z,23.02
2017-10-02T04:43:56.506Z,23.04
2017-10-02T04:44:36.967Z,23.07
2017-10-02T04:45:17.423Z,22.98
2017-10-02T04:45:57.892Z,23.02
2017-10-02T04:46:38.329Z,23.07
2017-10-02T04:47:18.774Z,23.06
2017-10-02T04:47:59.225Z,22.99
2017-10-02T04:48:39.691Z,23.01
2017-10-02T04:49:20.143Z,23.11
2017-10-02T04:50:00.591Z,22.98
2017-10-02T04:50:41.048Z,22.98
2017-10-02T04:51:21.508Z,22.98
2017-10-02T04:52:01.969Z,22.99
2017-10-02T04:52:42.421Z,23.01
2017-10-02T04:53:22.879Z,23.01
2017-10-02T04:54:03.332Z,23.07
2017-10-02T04:54:43.781Z,22.98
2017-10-02T04:55:24.240Z,23.06
2017-10-02T04:56:04.696Z,22.95
2017-10-02T04:56:45.146Z,23.02
2017-10-02T04:57:25.600Z,22.99
2017-10-02T04:58:06.045Z,22.98
2017-10-02T04:58:46.507Z,22.99
2017-10-02T04:59:26.951Z,22.99
2017-10-02T05:00:07.407Z,23.02
2017-10-02T05:00:47.863Z,22.96
2017-10-02T05:01:28.321Z,22.96
2017-10-02T05:02:08.772Z,22.98
2017-10-02T05:02:49.229Z,22.98
2017-10-02T05:03:29.684Z,22.98
2017-10-02T05:04:10.143Z,22.98
2017-10-02T05:04:50.594Z,22.98
2017-10-02T05:05:31.046Z,22.95
2017-10-02T05:06:11.502Z,22.88
2017-10-02T05:06:51.952Z,22.89
2017-10-02T05:07:32.387Z,22.88
2017-10-02T05:08:12.842Z,22.95
2017-10-02T05:08:53.308Z,22.88
2017-10-02T05:09:33.764Z,22.84
2017-10-02T05:10:14.218Z,22.92
2017-10-02T05:10:54.683Z,22.86
2017-10-02T05:11:35.140Z,22.95
2017-10-02T05:12:15.597Z,22.84
2017-10-02T05:12:56.053Z,22.89
2017-10-02T05:13:36.501Z,22.81
2017-10-02T05:14:16.969Z,22.84
2017-10-02T05:14:57.404Z,22.81
2017-10-02T05:15:37.864Z,22.86
2017-10-02T05:16:18.320Z,22.89
2017-10-02T05:16:58.770Z,22.88
2017-10-02T05:17:39.221Z,22.84
2017-10-02T05:18:19.669Z,22.83
2017-10-02T05:19:00.126Z,22.76
2017-10-02T05:19:40.568Z,22.84
2017-10-02T05:20:21.027Z,22.8
2017-10-02T05:21:01.475Z,22.81
2017-10-02T05:21:41.917Z,22.78
2017-10-02T05:22:22.374Z,22.81
2017-10-02T05:23:02.836Z,22.8
2017-10-02T05:23:43.291Z,22.8
2017-10-02T05:24:23.752Z,22.83
2017-10-02T05:25:04.200Z,22.8
2017-10-02T05:25:44.649Z,22.8
2017-10-02T05:26:25.109Z,22.81
2017-10-02T05:27:05.567Z,22.77
2017-10-02T05:27:46.021Z,22.8
2017-10-02T05:28:26.479Z,22.8
2017-10-02T05:29:06.934Z,22.81
2017-10-02T05:29:47.387Z,22.83
2017-10-02T05:30:27.840Z,22.81
2017-10-02T05:31:08.294Z,22.84
2017-10-02T05:31:48.746Z,22.77
2017-10-02T05:32:29.196Z,22.84
2017-10-02T05:33:09.657Z,22.8
2017-10-02T05:33:50.121Z,22.83
2017-10-02T05:34:30.574Z,22.88
2017-10-02T05:35:11.034Z,22.88
2017-10-02T05:35:51.489Z,22.81
2017-10-02T05:36:31.951Z,22.83
2017-10-02T05:37:12.407Z,22.77
2017-10-02T05:37:52.872Z,22.81
2017-10-02T05:38:33.328Z,22.81
2017-10-02T05:39:13.782Z,22.8
2017-10-02T05:39:54.230Z,22.84
2017-10-02T05:40:34.685Z,22.8
2017-10-02T05:41:15.134Z,22.81
2017-10-02T05:41:55.587Z,22.81
2017-10-02T05:42:36.045Z,22.86
2017-10-02T05:43:16.493Z,22.88
2017-10-02T05:43:56.946Z,22.89
2017-10-02T05:44:37.403Z,22.78
2017-10-02T05:45:17.879Z,22.81
2017-10-02T05:45:58.353Z,22.84
2017-10-02T05:46:38.814Z,22.86
2017-10-02T05:47:19.266Z,22.78
2017-10-02T05:47:59.718Z,22.81
2017-10-02T05:48:40.177Z,22.78
2017-10-02T05:49:20.621Z,22.81
2017-10-02T05:50:01.094Z,22.83
2017-10-02T05:50:41.541Z,22.84
2017-10-02T05:51:22.007Z,22.81
2017-10-02T05:52:02.466Z,22.89
2017-10-02T05:52:42.916Z,22.88
2017-10-02T05:53:23.374Z,22.88
2017-10-02T05:54:03.830Z,22.8
2017-10-02T05:54:44.290Z,22.83
2017-10-02T05:55:24.744Z,22.8
2017-10-02T05:56:05.199Z,22.84
2017-10-02T05:56:45.656Z,22.84
2017-10-02T05:57:26.097Z,22.83
2017-10-02T05:58:06.552Z,22.8
2017-10-02T05:58:47.004Z,22.86
2017-10-02T05:59:27.458Z,22.81
2017-10-02T06:00:07.911Z,22.83
2017-10-02T06:00:48.372Z,22.89
2017-10-02T06:01:28.828Z,22.88
2017-10-02T06:02:09.284Z,22.83
2017-10-02T06:02:49.738Z,22.77
2017-10-02T06:03:30.196Z,22.84
2017-10-02T06:04:10.647Z,22.8
2017-10-02T06:04:51.087Z,22.84
2017-10-02T06:05:31.541Z,22.83
2017-10-02T06:06:11.991Z,22.84
2017-10-02T06:06:52.452Z,22.86
2017-10-02T06:07:32.905Z,22.77
2017-10-02T06:08:13.357Z,22.8
2017-10-02T06:08:53.809Z,22.83
2017-10-02T06:09:34.263Z,22.83
2017-10-02T06:10:14.718Z,22.8
2017-10-02T06:10:55.174Z,22.88
2017-10-02T06:11:35.631Z,22.83
2017-10-02T06:12:16.081Z,22.77
2017-10-02T06:12:56.528Z,22.91
2017-10-02T06:13:36.977Z,22.8
2017-10-02T06:14:17.431Z,22.8
2017-10-02T06:14:57.880Z,22.78
2017-10-02T06:15:38.335Z,22.8
2017-10-02T06:16:18.792Z,22.76
2017-10-02T06:16:59.248Z,22.81
2017-10-02T06:17:39.850Z,22.77
2017-10-02T06:18:20.338Z,22.83
2017-10-02T06:19:00.795Z,22.78
2017-10-02T06:19:41.251Z,22.83
2017-10-02T06:20:21.712Z,22.8
2017-10-02T06:21:02.172Z,22.86
2017-10-02T06:21:42.626Z,22.8
2017-10-02T06:22:23.085Z,22.76
2017-10-02T06:23:03.555Z,22.77
2017-10-02T06:23:43.966Z,22.8
2017-10-02T06:24:24.418Z,22.8
2017-10-02T06:25:04.875Z,22.78
2017-10-02T06:25:45.338Z,22.89
2017-10-02T06:26:25.782Z,22.77
2017-10-02T06:27:06.244Z,22.76
2017-10-02T06:27:46.699Z,22.71
2017-10-02T06:28:27.148Z,22.84
2017-10-02T06:29:07.604Z,22.86
2017-10-02T06:29:48.059Z,22.78
2017-10-02T06:30:28.568Z,22.78
2017-10-02T06:31:09.020Z,22.88
2017-10-02T06:31:49.473Z,22.77
2017-10-02T06:32:29.933Z,22.78
2017-10-02T06:33:10.387Z,22.74
2017-10-02T06:33:50.839Z,22.77
2017-10-02T06:34:31.287Z,22.76
2017-10-02T06:35:11.743Z,22.8
2017-10-02T06:35:52.203Z,22.84
2017-10-02T06:36:32.651Z,22.8
2017-10-02T06:37:13.106Z,22.73
2017-10-02T06:37:53.572Z,22.83
2017-10-02T06:38:34.024Z,22.83
2017-10-02T06:39:14.477Z,22.71
2017-10-02T06:39:54.939Z,22.71
2017-10-02T06:40:35.391Z,22.84
2017-10-02T06:41:15.846Z,22.73
2017-10-02T06:41:56.298Z,22.74
2017-10-02T06:42:36.747Z,22.76
2017-10-02T06:43:17.212Z,22.8
2017-10-02T06:43:57.669Z,22.77
2017-10-02T06:44:38.125Z,22.7
2017-10-02T06:45:18.575Z,22.8
2017-10-02T06:45:59.035Z,22.8
2017-10-02T06:46:39.489Z,22.73
2017-10-02T06:47:19.945Z,22.81
2017-10-02T06:48:00.403Z,22.81
2017-10-02T06:48:40.862Z,22.73
2017-10-02T06:49:21.319Z,22.76
2017-10-02T06:50:01.774Z,22.84
2017-10-02T06:50:42.224Z,22.86
2017-10-02T06:51:22.674Z,22.86
2017-10-02T06:52:03.122Z,22.77
2017-10-02T06:52:43.645Z,22.74
2017-10-02T06:53:24.063Z,22.77
2017-10-02T06:54:04.522Z,22.84
2017-10-02T06:54:44.982Z,22.78
2017-10-02T06:55:25.430Z,22.83
2017-10-02T06:56:05.867Z,22.84
2017-10-02T06:56:46.328Z,22.83
2017-10-02T06:57:26.779Z,22.84
2017-10-02T06:58:07.234Z,22.8
2017-10-02T06:58:47.689Z,22.77
2017-10-02T06:59:28.142Z,22.78
2017-10-02T07:00:08.588Z,22.8
2017-10-02T07:00:49.042Z,22.81
2017-10-02T07:01:29.503Z,22.84
2017-10-02T07:02:09.965Z,22.89
2017-10-02T07:02:50.413Z,22.81
2017-10-02T07:03:30.882Z,22.81
2017-10-02T07:04:11.339Z,22.84
2017-10-02T07:04:51.794Z,22.86
2017-10-02T07:05:32.247Z,22.88
2017-10-02T07:06:12.707Z,22.93
2017-10-02T07:06:53.154Z,22.88
2017-10-02T07:07:33.611Z,22.92
2017-10-02T07:08:14.068Z,22.81
2017-10-02T07:08:54.522Z,22.89
2017-10-02T07:09:34.978Z,22.93
2017-10-02T07:10:15.428Z,22.89
2017-10-02T07:10:55.883Z,22.88
2017-10-02T07:11:36.345Z,22.81
2017-10-02T07:12:16.800Z,22.89
2017-10-02T07:12:57.252Z,22.86
2017-10-02T07:13:37.708Z,22.86
2017-10-02T07:14:18.161Z,22.86
2017-10-02T07:14:58.627Z,22.81
2017-10-02T07:15:39.091Z,22.92
2017-10-02T07:16:19.538Z,22.84
2017-10-02T07:16:59.990Z,22.86
2017-10-02T07:17:40.447Z,22.89
2017-10-02T07:18:20.900Z,22.88
2017-10-02T07:19:01.357Z,22.91
2017-10-02T07:19:41.813Z,22.91
2017-10-02T07:20:22.271Z,22.89
2017-10-02T07:21:02.723Z,22.83
2017-10-02T07:21:43.183Z,22.86
2017-10-02T07:22:23.629Z,22.83
2017-10-02T07:23:04.121Z,22.84
2017-10-02T07:23:44.547Z,22.88
2017-10-02T07:24:25.002Z,22.86
2017-10-02T07:25:05.465Z,22.81
2017-10-02T07:25:45.920Z,22.83
2017-10-02T07:26:26.379Z,22.83
2017-10-02T07:27:06.830Z,22.88
2017-10-02T07:27:47.288Z,22.81
2017-10-02T07:28:27.746Z,22.78
2017-10-02T07:29:08.200Z,22.81
2017-10-02T07:29:48.655Z,22.86
2017-10-02T07:30:29.182Z,22.77
2017-10-02T07:31:12.306Z,22.78
2017-10-02T07:31:52.764Z,22.81
2017-10-02T07:32:33.218Z,22.81
2017-10-02T07:33:13.688Z,22.8
2017-10-02T07:33:54.137Z,22.8
2017-10-02T07:34:34.588Z,22.83
2017-10-02T07:35:16.005Z,22.89
2017-10-02T07:35:56.453Z,22.89
2017-10-02T07:36:37.017Z,22.84
2017-10-02T07:37:17.481Z,22.83
2017-10-02T07:37:57.962Z,22.83
2017-10-02T07:38:38.419Z,22.83
2017-10-02T07:39:18.876Z,22.78
2017-10-02T07:39:59.332Z,22.81
2017-10-02T07:40:39.791Z,22.83
2017-10-02T07:41:20.249Z,22.81
2017-10-02T07:42:00.700Z,22.81
2017-10-02T07:42:41.153Z,22.81
2017-10-02T07:43:21.615Z,22.84
2017-10-02T07:44:02.067Z,22.8
2017-10-02T07:44:42.514Z,22.81
2017-10-02T07:45:22.971Z,22.84
2017-10-02T07:46:03.428Z,22.86
2017-10-02T07:46:43.884Z,22.83
2017-10-02T07:47:24.344Z,22.81
2017-10-02T07:48:04.807Z,22.81
2017-10-02T07:48:45.264Z,22.81
2017-10-02T07:49:25.717Z,22.81
2017-10-02T07:50:06.176Z,22.78
2017-10-02T07:50:46.633Z,22.81
2017-10-02T07:51:27.085Z,22.86
2017-10-02T07:52:07.545Z,22.8
2017-10-02T07:52:47.999Z,22.81
2017-10-02T07:53:28.443Z,22.84
2017-10-02T07:54:08.891Z,22.81
2017-10-02T07:54:49.348Z,22.8
2017-10-02T07:55:29.794Z,22.83
2017-10-02T07:56:10.250Z,22.77
2017-10-02T07:56:50.696Z,22.77
2017-10-02T07:57:31.157Z,22.77
2017-10-02T07:59:28.913Z,22.81
2017-10-02T08:00:09.364Z,22.8
2017-10-02T08:00:49.816Z,22.78
2017-10-02T08:01:30.272Z,22.83
2017-10-02T08:02:10.724Z,22.83
2017-10-02T08:02:51.180Z,22.83
2017-10-02T08:03:31.610Z,22.83
2017-10-02T08:04:12.057Z,22.86
2017-10-02T08:04:52.518Z,22.81
2017-10-02T08:05:32.964Z,22.83
2017-10-02T08:06:13.412Z,22.76
2017-10-02T08:06:53.867Z,22.74
2017-10-02T08:07:34.339Z,22.77
2017-10-02T08:08:14.794Z,22.83
2017-10-02T08:08:55.245Z,22.76
2017-10-02T08:09:35.698Z,22.78
2017-10-02T08:10:16.147Z,22.8
2017-10-02T08:10:56.618Z,22.83
2017-10-02T08:11:37.075Z,22.84
2017-10-02T08:12:17.529Z,22.78
2017-10-02T08:12:58.029Z,22.83
2017-10-02T08:13:38.477Z,22.83
2017-10-02T08:14:18.933Z,22.81
2017-10-02T08:14:59.384Z,22.86
2017-10-02T08:15:39.823Z,22.81
2017-10-02T08:16:20.288Z,22.78
2017-10-02T08:17:00.742Z,22.78
2017-10-02T08:17:41.202Z,22.77
2017-10-02T08:18:21.654Z,22.77
2017-10-02T08:19:02.106Z,22.8
2017-10-02T08:19:42.560Z,22.76
2017-10-02T08:20:23.012Z,22.77
2017-10-02T08:21:03.515Z,22.71
2017-10-02T08:21:43.980Z,22.77
2017-10-02T08:22:24.428Z,22.76
2017-10-02T08:23:04.879Z,22.83
2017-10-02T08:23:45.324Z,22.78
2017-10-02T08:24:25.795Z,22.78
2017-10-02T08:25:06.256Z,22.78
2017-10-02T08:25:46.717Z,22.78
2017-10-02T08:26:27.160Z,22.76
2017-10-02T08:27:07.591Z,22.78
2017-10-02T08:27:48.057Z,22.74
2017-10-02T08:28:28.501Z,22.78
2017-10-02T08:29:08.956Z,22.74
2017-10-02T08:29:49.407Z,22.78
2017-10-02T08:31:42.005Z,22.81
2017-10-02T08:32:22.455Z,22.81
2017-10-02T08:33:02.906Z,22.8
2017-10-02T08:33:43.355Z,22.88
2017-10-02T08:34:23.795Z,22.8
2017-10-02T08:35:04.246Z,22.8
2017-10-02T08:35:44.696Z,22.84
2017-10-02T08:36:25.143Z,22.78
2017-10-02T08:37:05.931Z,22.8
2017-10-02T08:37:46.405Z,22.83
2017-10-02T08:38:26.858Z,22.8
2017-10-02T08:39:07.446Z,22.84
2017-10-02T08:39:47.914Z,22.78
2017-10-02T08:40:28.371Z,22.81
2017-10-02T08:41:08.845Z,22.8
2017-10-02T08:41:49.325Z,22.84
2017-10-02T08:42:29.776Z,22.8
2017-10-02T08:43:10.231Z,22.81
2017-10-02T08:43:50.705Z,22.81
2017-10-02T08:44:31.126Z,22.84
2017-10-02T08:45:11.641Z,22.91